createdAt,value
2022-08-07T00:02:36.495Z,68.57
2022-08-07T00:07:23.944Z,68.48
2022-08-07T00:12:31.909Z,68.20
2022-08-07T00:17:36.683Z,68.70
2022-08-07T00:22:42.556Z,68.59
2022-08-07T00:27:56.593Z,68.77
2022-08-07T00:33:02.294Z,69.09
2022-08-07T00:38:06.370Z,69.76
2022-08-07T00:44:01.848Z,70.10
2022-08-07T00:48:35.409Z,70.16
2022-08-07T00:53:50.705Z,70.08
2022-08-07T00:58:59.273Z,69.97
2022-08-07T01:04:07.713Z,70.30
2022-08-07T01:09:11.940Z,70.34
2022-08-07T01:14:38.254Z,70.82
2022-08-07T01:19:44.961Z,70.78
2022-08-07T01:24:59.179Z,70.84
2022-08-07T01:30:03.579Z,70.76
2022-08-07T01:35:07.882Z,70.81
2022-08-07T01:40:15.491Z,70.88
2022-08-07T01:45:23.032Z,71.13
2022-08-07T01:50:43.340Z,70.92
2022-08-07T01:55:56.011Z,70.55
2022-08-07T02:01:25.324Z,70.04
2022-08-07T02:06:40.015Z,69.63
2022-08-07T02:12:04.869Z,69.26
2022-08-07T02:17:13.192Z,69.01
2022-08-07T02:22:30.594Z,68.64
2022-08-07T02:27:34.995Z,69.03
2022-08-07T02:32:39.378Z,69.56
2022-08-07T02:38:04.715Z,69.67
2022-08-07T02:43:09.157Z,69.44
2022-08-07T02:48:15.456Z,69.31
2022-08-07T02:53:29.035Z,69.40
2022-08-07T02:58:34.279Z,69.18
2022-08-07T03:03:49.188Z,68.76
2022-08-07T03:08:54.654Z,68.85
2022-08-07T03:14:01.558Z,69.03
2022-08-07T03:19:05.680Z,69.12
2022-08-07T03:24:17.944Z,68.88
2022-08-07T03:29:38.644Z,69.17
2022-08-07T03:35:17.010Z,69.01
2022-08-07T03:40:18.987Z,69.05
2022-08-07T03:45:30.744Z,69.31
2022-08-07T03:50:35.504Z,69.04
2022-08-07T03:55:57.978Z,68.98
2022-08-07T04:01:04.957Z,68.76
2022-08-07T04:06:37.533Z,68.42
2022-08-07T04:12:24.220Z,68.30
2022-08-07T04:17:00.646Z,68.37
2022-08-07T04:22:14.452Z,68.71
2022-08-07T04:27:25.704Z,68.46
2022-08-07T04:32:34.301Z,68.38
2022-08-07T04:37:52.760Z,68.54
2022-08-07T04:43:03.588Z,67.90
2022-08-07T04:48:24.122Z,67.14
2022-08-07T04:54:12.498Z,66.65
2022-08-07T05:00:09.819Z,65.49
2022-08-07T05:05:53.417Z,63.87
2022-08-07T05:10:58.444Z,61.73
2022-08-07T05:16:10.941Z,59.20
2022-08-07T05:21:18.514Z,59.35
2022-08-07T05:26:42.290Z,58.47
2022-08-07T05:31:53.075Z,57.64
2022-08-07T05:36:57.674Z,56.42
2022-08-07T05:42:07.541Z,55.52
2022-08-07T05:47:38.587Z,53.74
2022-08-07T05:52:43.112Z,53.16
2022-08-07T05:57:46.573Z,52.95
2022-08-07T06:02:53.890Z,52.80
2022-08-07T06:08:13.921Z,52.05
2022-08-07T06:14:10.773Z,52.53
2022-08-07T06:18:48.329Z,52.37
2022-08-07T06:24:45.590Z,51.32
2022-08-07T06:29:28.026Z,50.31
2022-08-07T06:34:32.484Z,50.76
2022-08-07T06:40:17.673Z,50.78
2022-08-07T06:45:00.506Z,49.87
2022-08-07T06:50:05.490Z,49.96
2022-08-07T06:55:31.842Z,49.96
2022-08-07T07:00:44.758Z,50.13
2022-08-07T07:06:04.027Z,48.95
2022-08-07T07:11:14.135Z,47.71
2022-08-07T07:16:49.646Z,48.78
2022-08-07T07:22:05.138Z,48.09
2022-08-07T07:27:20.279Z,48.08
2022-08-07T07:32:25.983Z,48.07
2022-08-07T07:37:47.194Z,47.83
2022-08-07T07:42:57.987Z,47.45
2022-08-07T07:48:35.412Z,47.03
2022-08-07T07:53:51.982Z,47.94
2022-08-07T07:58:57.319Z,48.36
2022-08-07T08:04:10.358Z,48.30
2022-08-07T08:09:18.936Z,48.22
2022-08-07T08:14:26.238Z,47.06
2022-08-07T08:20:17.277Z,47.23
2022-08-07T08:25:24.746Z,48.03
2022-08-07T08:30:42.861Z,47.58
2022-08-07T08:35:56.094Z,48.55
2022-08-07T08:41:23.043Z,49.20
2022-08-07T08:47:09.925Z,47.51
2022-08-07T08:52:30.286Z,47.39
2022-08-07T08:57:59.309Z,48.57
2022-08-07T09:03:49.503Z,47.03
2022-08-07T09:09:47.660Z,46.87
2022-08-07T09:16:24.755Z,47.04
2022-08-07T09:21:33.867Z,46.29
2022-08-07T09:27:59.884Z,46.87
2022-08-07T09:33:53.280Z,45.75
2022-08-07T09:39:54.663Z,46.08
2022-08-07T09:47:24.304Z,44.37
2022-08-07T09:51:26.017Z,44.56
2022-08-07T09:56:41.905Z,42.97
2022-08-07T10:02:29.636Z,44.18
2022-08-07T10:08:22.763Z,43.50
2022-08-07T10:14:00.337Z,44.42
2022-08-07T10:19:27.112Z,42.48
2022-08-07T10:25:01.953Z,43.64
2022-08-07T10:30:15.283Z,42.98
2022-08-07T10:35:56.935Z,40.78
2022-08-07T10:41:46.835Z,41.62
2022-08-07T10:47:52.693Z,42.81
2022-08-07T10:53:25.214Z,41.51
2022-08-07T10:58:46.068Z,42.66
2022-08-07T11:04:31.489Z,42.62
2022-08-07T11:10:10.158Z,41.36
2022-08-07T11:15:21.099Z,41.76
2022-08-07T11:21:08.470Z,41.36
2022-08-07T11:26:50.114Z,41.72
2022-08-07T11:32:25.315Z,41.54
2022-08-07T11:38:12.411Z,41.12
2022-08-07T11:43:29.784Z,40.35
2022-08-07T11:49:50.490Z,40.37
2022-08-07T11:55:18.989Z,40.83
2022-08-07T12:01:02.532Z,41.12
2022-08-07T12:06:39.307Z,39.82
2022-08-07T12:12:11.687Z,39.51
2022-08-07T12:17:22.054Z,40.22
2022-08-07T12:22:38.899Z,39.92
2022-08-07T12:28:09.101Z,40.57
2022-08-07T12:33:28.556Z,39.72
2022-08-07T12:38:43.109Z,40.57
2022-08-07T12:44:02.039Z,40.18
2022-08-07T12:49:39.873Z,40.27
2022-08-07T12:55:05.566Z,40.05
2022-08-07T13:00:20.871Z,40.74
2022-08-07T13:06:02.708Z,39.62
2022-08-07T13:11:26.772Z,39.40
2022-08-07T13:16:39.647Z,38.74
2022-08-07T13:21:57.715Z,39.34
2022-08-07T13:27:20.663Z,38.41
2022-08-07T13:32:59.766Z,39.12
2022-08-07T13:38:38.112Z,38.51
2022-08-07T13:43:52.756Z,38.33
2022-08-07T13:49:04.289Z,38.93
2022-08-07T13:54:16.565Z,38.74
2022-08-07T13:59:33.663Z,39.30
2022-08-07T14:04:54.481Z,39.49
2022-08-07T14:10:20.375Z,38.92
2022-08-07T14:15:39.773Z,38.94
2022-08-07T14:20:54.584Z,39.38
2022-08-07T14:26:28.439Z,39.41
2022-08-07T14:31:43.365Z,39.40
2022-08-07T14:37:16.190Z,38.41
2022-08-07T14:42:31.380Z,38.46
2022-08-07T14:47:36.235Z,38.52
2022-08-07T14:52:40.501Z,39.00
2022-08-07T14:57:58.237Z,38.65
2022-08-07T15:03:18.946Z,37.81
2022-08-07T15:08:53.055Z,38.26
2022-08-07T15:14:09.994Z,38.47
2022-08-07T15:19:23.005Z,38.03
2022-08-07T15:30:16.906Z,38.20
2022-08-07T15:36:00.663Z,38.41
2022-08-07T15:41:22.940Z,38.90
2022-08-07T15:46:34.301Z,37.97
2022-08-07T15:57:05.190Z,37.89
2022-08-07T16:02:11.063Z,37.19
2022-08-07T16:08:33.706Z,37.76
2022-08-07T16:13:57.854Z,37.92
2022-08-07T16:19:58.409Z,38.56
2022-08-07T16:25:54.513Z,39.05
2022-08-07T16:31:51.129Z,38.73
2022-08-07T16:37:02.311Z,38.52
2022-08-07T16:42:34.245Z,37.97
2022-08-07T16:48:17.434Z,38.27
2022-08-07T16:54:02.639Z,38.48
2022-08-07T16:59:46.365Z,39.23
2022-08-07T17:06:02.139Z,39.15
2022-08-07T17:10:55.694Z,39.66
2022-08-07T17:17:08.126Z,40.30
2022-08-07T17:22:29.978Z,40.18
2022-08-07T17:28:00.971Z,41.12
2022-08-07T17:34:08.496Z,41.69
2022-08-07T17:39:18.547Z,41.12
2022-08-07T17:44:46.872Z,41.72
2022-08-07T17:50:16.827Z,42.47
2022-08-07T17:56:00.440Z,43.04
2022-08-07T18:01:20.904Z,44.18
2022-08-07T18:06:58.046Z,46.12
2022-08-07T18:12:33.687Z,46.77
2022-08-07T18:18:45.478Z,47.23
2022-08-07T18:23:57.520Z,48.08
2022-08-07T18:30:06.867Z,48.59
2022-08-07T18:35:04.663Z,48.84
2022-08-07T18:41:10.114Z,49.61
2022-08-07T18:47:11.142Z,50.08
2022-08-07T18:53:12.343Z,50.63
2022-08-07T18:58:43.596Z,51.16
2022-08-07T19:04:09.408Z,51.52
2022-08-07T19:09:55.919Z,51.76
2022-08-07T19:16:04.302Z,51.92
2022-08-07T19:21:45.057Z,52.39
2022-08-07T19:27:10.341Z,52.46
2022-08-07T19:32:30.652Z,52.57
2022-08-07T19:37:56.269Z,52.97
2022-08-07T19:43:10.846Z,53.76
2022-08-07T19:48:18.959Z,53.73
2022-08-07T19:54:31.743Z,53.67
2022-08-07T19:58:55.102Z,53.83
2022-08-07T20:04:01.579Z,53.87
2022-08-07T20:09:07.600Z,53.94
2022-08-07T20:14:38.946Z,54.38
2022-08-07T20:19:59.275Z,54.85
2022-08-07T20:25:12.930Z,54.55
2022-08-07T20:30:38.855Z,54.81
2022-08-07T20:35:54.350Z,54.22
2022-08-07T20:41:08.276Z,52.39
2022-08-07T20:46:27.060Z,52.33
2022-08-07T20:51:35.958Z,52.32
2022-08-07T20:56:50.095Z,51.83
2022-08-07T21:01:58.384Z,51.72
2022-08-07T21:07:14.725Z,51.89
2022-08-07T21:12:33.803Z,51.81
2022-08-07T21:18:09.003Z,52.01
2022-08-07T21:23:15.433Z,52.26
2022-08-07T21:28:49.555Z,52.51
2022-08-07T21:34:10.229Z,54.01
2022-08-07T21:39:51.384Z,52.83
2022-08-07T21:46:08.365Z,52.93
2022-08-07T21:51:25.937Z,53.20
2022-08-07T21:56:59.850Z,53.21
2022-08-07T22:02:14.996Z,53.08
2022-08-07T22:07:31.822Z,54.22
2022-08-07T22:13:13.802Z,54.92
2022-08-07T22:18:38.418Z,55.51
2022-08-07T22:24:00.072Z,56.52
2022-08-07T22:29:37.786Z,57.08
2022-08-07T22:35:02.103Z,57.71
2022-08-07T22:40:39.322Z,58.39
2022-08-07T22:46:46.873Z,58.35
2022-08-07T22:52:37.544Z,58.75
2022-08-07T22:58:04.720Z,58.94
2022-08-07T23:03:59.091Z,59.29
2022-08-07T23:10:03.926Z,59.18
2022-08-07T23:15:21.863Z,59.53
2022-08-07T23:21:09.439Z,59.55
2022-08-07T23:26:26.264Z,59.58
2022-08-07T23:34:19.421Z,59.24
2022-08-07T23:38:01.330Z,59.43
2022-08-07T23:43:51.332Z,59.25
2022-08-07T23:49:50.709Z,59.45
2022-08-07T23:55:47.109Z,59.67
